Time;durP1;ratioP1;P1;durP2;ratioP2;P2;SDS_P1;SDS_P2;PMS_P1;PMS_P2;Temp;Humidity;BMP_temperature;BMP_pressure;BME280_temperature;BME280_humidity;BME280_pressure;Samples;Min_cycle;Max_cycle;Signal;HPM_P1;HPM_P2
2023/07/10 06:52:17;;;;;;;;;8.75;7.50;;;;;-142.59;100.00;56100.38;5081245;23;52011;-74
2023/07/10 06:54:42;;;;;;;;;6.00;6.00;;;;;-142.59;100.00;56100.38;4891123;28;50060;-78
2023/07/10 06:57:08;;;;;;;;;3.00;3.00;;;;;-142.59;100.00;56100.38;4892940;29;69052;-79
2023/07/10 06:59:33;;;;;;;;;7.50;1.25;;;;;-142.59;100.00;56100.38;4893578;28;49951;-78
2023/07/10 07:01:58;;;;;;;;;5.25;2.50;;;;;-142.59;100.00;56100.38;4890832;29;49811;-78
2023/07/10 07:04:23;;;;;;;;;4.00;3.00;;;;;-142.59;100.00;56100.38;4891402;29;59777;-77
2023/07/10 07:06:50;;;;;;;;;3.00;1.25;;;;;-142.59;100.00;56100.38;4892532;29;67030;-76
2023/07/10 07:09:15;;;;;;;;;2.00;0.50;;;;;-142.59;100.00;56100.38;4893174;28;50207;-79
2023/07/10 07:11:41;;;;;;;;;0.75;0.75;;;;;-142.59;100.00;56100.38;4893069;28;49618;-82
2023/07/10 07:14:07;;;;;;;;;1.00;1.00;;;;;-142.59;100.00;56100.38;4893136;28;50026;-78
2023/07/10 07:16:32;;;;;;;;;4.25;1.75;;;;;-142.59;100.00;56100.38;4892495;28;50948;-76
2023/07/10 07:18:57;;;;;;;;;6.75;5.75;;;;;-142.59;100.00;56100.38;4893162;29;50003;-73
2023/07/10 07:21:23;;;;;;;;;4.00;4.00;;;;;-142.59;100.00;56100.38;4892561;29;49723;-72
2023/07/10 07:23:48;;;;;;;;;8.25;7.25;;;;;-142.59;100.00;56100.38;4893108;29;49981;-70
2023/07/10 07:26:13;;;;;;;;;2.00;2.00;;;;;-142.59;100.00;56100.38;4892322;28;59419;-77
2023/07/10 07:28:38;;;;;;;;;4.00;4.00;;;;;-142.59;100.00;56100.38;4891846;28;49674;-71
2023/07/10 07:31:05;;;;;;;;;4.25;4.25;;;;;-142.59;100.00;56100.38;4891513;28;59297;-70
2023/07/10 07:33:31;;;;;;;;;9.50;9.50;;;;;-142.59;100.00;56100.38;4892213;28;50097;-70
2023/07/10 07:36:00;;;;;;;;;4.75;4.00;;;;;-142.59;100.00;56100.38;4891501;28;50244;-70
2023/07/10 07:38:25;;;;;;;;;7.00;4.00;;;;;-142.59;100.00;56100.38;4891719;28;50059;-72
2023/07/10 07:40:50;;;;;;;;;2.50;0.75;;;;;-142.59;100.00;56100.38;4892648;28;49733;-75
2023/07/10 07:43:16;;;;;;;;;1.50;1.50;;;;;-142.59;100.00;56100.38;4893110;28;49697;-72
2023/07/10 07:45:53;;;;;;;;;0.50;0.50;;;;;-142.59;100.00;56100.38;4892458;28;50261;-71
2023/07/10 07:48:20;;;;;;;;;2.50;2.50;;;;;-142.59;100.00;56100.38;4892604;28;49807;-72
2023/07/10 07:51:00;;;;;;;;;2.00;1.75;;;;;-142.59;100.00;56100.38;4891729;28;49942;-70
2023/07/10 07:53:27;;;;;;;;;6.75;5.75;;;;;-142.59;100.00;56100.38;4890056;29;49690;-72
2023/07/10 07:55:53;;;;;;;;;8.00;4.00;;;;;-142.59;100.00;56100.38;4892276;28;51504;-69
2023/07/10 07:58:18;;;;;;;;;7.00;7.00;;;;;-142.59;100.00;56100.38;4891776;29;49772;-75
2023/07/10 08:00:44;;;;;;;;;5.00;4.00;;;;;-142.59;100.00;56100.38;4891427;28;49823;-73
2023/07/10 08:03:10;;;;;;;;;3.50;3.00;;;;;-142.59;100.00;56100.38;4892631;29;49999;-74
2023/07/10 08:05:36;;;;;;;;;7.75;3.00;;;;;-142.59;100.00;56100.38;4892055;29;49869;-74
2023/07/10 08:08:02;;;;;;;;;5.00;5.00;;;;;-142.59;100.00;56100.38;4892095;28;49795;-72
2023/07/10 08:10:32;;;;;;;;;3.00;2.00;;;;;-142.59;100.00;56100.38;4892383;28;49844;-72
2023/07/10 08:12:57;;;;;;;;;2.50;2.50;;;;;-142.59;100.00;56100.38;4892391;29;49883;-72
2023/07/10 08:15:23;;;;;;;;;5.00;5.00;;;;;-142.59;100.00;56100.38;4892272;28;50580;-72
2023/07/10 08:17:48;;;;;;;;;6.00;4.00;;;;;-142.59;100.00;56100.38;4892263;29;49751;-72
2023/07/10 08:20:13;;;;;;;;;1.50;1.50;;;;;-142.59;100.00;56100.38;4891231;29;68275;-72
2023/07/10 08:22:38;;;;;;;;;1.50;0.25;;;;;-142.59;100.00;56100.38;4891759;29;49994;-72
2023/07/10 08:25:06;;;;;;;;;2.00;1.00;;;;;-142.59;100.00;56100.38;4890978;29;71242;-72
2023/07/10 08:27:31;;;;;;;;;6.00;4.25;;;;;-142.59;100.00;56100.38;4891990;29;50003;-73
2023/07/10 08:29:57;;;;;;;;;2.25;1.00;;;;;-142.59;100.00;56100.38;4892475;28;49708;-75
2023/07/10 08:32:22;;;;;;;;;0.50;0.00;;;;;-142.59;100.00;56100.38;4891983;28;50175;-74
2023/07/10 08:34:47;;;;;;;;;2.00;2.00;;;;;-142.59;100.00;56100.38;4891438;28;63686;-76
2023/07/10 08:37:12;;;;;;;;;4.75;1.00;;;;;-142.59;100.00;56100.38;4891657;28;62804;-74
2023/07/10 08:39:38;;;;;;;;;4.00;1.00;;;;;-142.59;100.00;56100.38;4891347;29;65001;-74
2023/07/10 08:42:14;;;;;;;;;4.00;1.00;;;;;-142.59;100.00;56100.38;4891286;29;64357;-76
2023/07/10 08:44:40;;;;;;;;;5.00;3.00;;;;;-142.59;100.00;56100.38;4891908;28;51826;-74
2023/07/10 08:47:19;;;;;;;;;3.00;2.00;;;;;-142.59;100.00;56100.38;4891708;28;49758;-75
2023/07/10 08:49:54;;;;;;;;;1.00;1.00;;;;;-142.59;100.00;56100.38;4892135;28;50130;-74
2023/07/10 08:52:38;;;;;;;;;1.75;1.75;;;;;-142.59;100.00;56100.38;4887288;29;49713;-75
2023/07/10 08:55:10;;;;;;;;;0.00;0.00;;;;;-142.59;100.00;56100.38;4891514;29;51672;-75
2023/07/10 08:57:42;;;;;;;;;1.00;1.00;;;;;-142.59;100.00;56100.38;4891724;28;49809;-76
2023/07/10 09:00:11;;;;;;;;;1.00;1.00;;;;;-142.59;100.00;56100.38;4891767;28;49899;-76
2023/07/10 09:02:51;;;;;;;;;1.75;1.75;;;;;-142.59;100.00;56100.38;4891445;28;49962;-75
2023/07/10 09:05:24;;;;;;;;;3.50;1.00;;;;;-142.59;100.00;56100.38;4891668;28;49858;-74
2023/07/10 09:07:50;;;;;;;;;2.00;1.50;;;;;-142.59;100.00;56100.38;4890152;29;49833;-74
2023/07/10 09:10:24;;;;;;;;;0.00;0.00;;;;;-142.59;100.00;56100.38;4892070;28;49802;-74
2023/07/10 09:12:52;;;;;;;;;1.00;1.00;;;;;-142.59;100.00;56100.38;4895192;28;49802;-74
2023/07/10 09:15:25;;;;;;;;;0.00;0.00;;;;;-142.59;100.00;56100.38;4894884;28;50354;-74
2023/07/10 09:18:00;;;;;;;;;3.50;3.50;;;;;-142.59;100.00;56100.38;4894304;28;49784;-75
2023/07/10 09:20:26;;;;;;;;;0.00;0.00;;;;;-142.59;100.00;56100.38;4894712;28;49856;-74
2023/07/10 09:22:57;;;;;;;;;0.00;0.00;;;;;-142.59;100.00;56100.38;4894863;28;50044;-74
2023/07/10 09:25:24;;;;;;;;;1.00;1.00;;;;;-142.59;100.00;56100.38;4894313;28;49784;-74
2023/07/10 09:27:50;;;;;;;;;1.00;1.00;;;;;-142.59;100.00;56100.38;4894636;28;49891;-74
2023/07/10 09:30:27;;;;;;;;;3.00;3.00;;;;;-142.59;100.00;56100.38;4894717;28;49765;-74
2023/07/10 09:33:08;;;;;;;;;0.75;0.50;;;;;-142.59;100.00;56100.38;4894705;28;49715;-74
2023/07/10 09:35:36;;;;;;;;;0.00;0.00;;;;;-142.59;100.00;56100.38;4894569;29;49697;-74
2023/07/10 09:38:03;;;;;;;;;0.00;0.00;;;;;-142.59;100.00;56100.38;4894884;28;49888;-73
2023/07/10 09:40:45;;;;;;;;;5.00;2.50;;;;;-142.59;100.00;56100.38;4894013;28;49765;-72
2023/07/10 09:43:18;;;;;;;;;3.00;1.50;;;;;-142.59;100.00;56100.38;4889410;28;49744;-72
2023/07/10 09:45:47;;;;;;;;;1.50;1.50;;;;;-142.59;100.00;56100.38;4893822;28;50721;-72
2023/07/10 09:48:31;;;;;;;;;2.75;1.00;;;;;-142.59;100.00;56100.38;4894024;28;49856;-73
2023/07/10 09:51:02;;;;;;;;;0.00;0.00;;;;;-142.59;100.00;56100.38;4893932;28;50124;-70
2023/07/10 09:53:45;;;;;;;;;8.25;6.25;;;;;-142.59;100.00;56100.38;4894323;28;50065;-77
2023/07/10 09:56:19;;;;;;;;;6.25;5.00;;;;;-142.59;100.00;56100.38;4893528;28;50841;-74
2023/07/10 09:58:46;;;;;;;;;4.75;4.75;;;;;-142.59;100.00;56100.38;4894165;28;49691;-73
2023/07/10 10:01:11;;;;;;;;;4.00;4.00;;;;;-142.59;100.00;56100.38;4894000;28;49991;-74
2023/07/10 10:03:41;;;;;;;;;2.00;2.00;;;;;-142.59;100.00;56100.38;4894277;28;49705;-72
2023/07/10 10:06:19;;;;;;;;;1.50;1.00;;;;;-142.59;100.00;56100.38;4888030;29;51405;-76
2023/07/10 10:08:45;;;;;;;;;1.25;1.25;;;;;-142.59;100.00;56100.38;4889292;29;49772;-76
2023/07/10 10:11:12;;;;;;;;;4.00;4.00;;;;;-142.59;100.00;56100.38;4893781;28;49795;-82
2023/07/10 10:14:00;;;;;;;;;1.00;1.00;;;;;-142.59;100.00;56100.38;4894022;28;50025;-78
2023/07/10 10:16:51;;;;;;;;;4.50;3.50;;;;;-142.59;100.00;56100.38;4893599;29;49728;-76
2023/07/10 10:19:27;;;;;;;;;0.75;0.75;;;;;-142.59;100.00;56100.38;4886152;29;49758;-73
2023/07/10 10:21:53;;;;;;;;;4.00;1.00;;;;;-142.59;100.00;56100.38;4888941;28;50109;-75
2023/07/10 10:24:18;;;;;;;;;0.00;0.00;;;;;-142.59;100.00;56100.38;4893016;28;60465;-75
2023/07/10 10:27:02;;;;;;;;;2.00;0.75;;;;;-142.59;100.00;56100.38;4907808;28;52460;-69
2023/07/10 10:29:37;;;;;;;;;4.00;4.00;;;;;-142.59;100.00;56100.38;4893592;29;49702;-69
2023/07/10 10:32:08;;;;;;;;;1.75;1.75;;;;;-142.59;100.00;56100.38;4893101;28;49756;-69
2023/07/10 10:35:01;;;;;;;;;3.50;3.50;;;;;-142.59;100.00;56100.38;4893833;28;49829;-68
2023/07/10 10:37:43;;;;;;;;;2.00;2.00;;;;;-142.59;100.00;56100.38;4893408;28;50118;-69
2023/07/10 10:40:39;;;;;;;;;0.25;0.25;;;;;-142.59;100.00;56100.38;4893477;28;49748;-68
2023/07/10 10:43:17;;;;;;;;;0.25;0.00;;;;;-142.59;100.00;56100.38;4893471;29;49794;-68
2023/07/10 10:45:51;;;;;;;;;1.75;1.75;;;;;-142.59;100.00;56100.38;4891165;29;50014;-69
2023/07/10 10:48:35;;;;;;;;;0.25;0.25;;;;;-142.59;100.00;56100.38;4893244;28;51453;-69
2023/07/10 10:51:23;;;;;;;;;4.00;4.00;;;;;-142.59;100.00;56100.38;4893616;28;49976;-69
2023/07/10 10:53:55;;;;;;;;;1.50;0.75;;;;;-142.59;100.00;56100.38;4887622;29;49704;-69
2023/07/10 10:56:23;;;;;;;;;2.00;2.00;;;;;-142.59;100.00;56100.38;4893225;29;49987;-74
2023/07/10 10:58:56;;;;;;;;;0.50;0.50;;;;;-142.59;100.00;56100.38;4893213;28;51372;-69
2023/07/10 11:01:38;;;;;;;;;1.50;0.50;;;;;-142.59;100.00;56100.38;4892864;28;50128;-69
2023/07/10 11:04:39;;;;;;;;;2.00;2.00;;;;;-142.59;100.00;56100.38;4893525;28;49660;-68
2023/07/10 11:07:09;;;;;;;;;2.00;1.00;;;;;-142.59;100.00;56100.38;4869973;28;50183;-69
2023/07/10 11:09:48;;;;;;;;;1.00;1.00;;;;;-142.59;100.00;56100.38;4893172;28;50993;-69
2023/07/10 11:12:20;;;;;;;;;0.00;0.00;;;;;-142.59;100.00;56100.38;4892642;29;50033;-68
2023/07/10 11:14:48;;;;;;;;;1.25;1.25;;;;;-142.59;100.00;56100.38;4892048;28;49797;-69
2023/07/10 11:17:14;;;;;;;;;4.75;2.00;;;;;-142.59;100.00;56100.38;4893216;28;49748;-69
2023/07/10 11:19:41;;;;;;;;;6.00;6.00;;;;;-142.59;100.00;56100.38;4893393;28;49873;-69
2023/07/10 11:22:26;;;;;;;;;1.00;0.00;;;;;-142.59;100.00;56100.38;4892902;28;49710;-68
2023/07/10 11:24:52;;;;;;;;;1.00;1.00;;;;;-142.59;100.00;56100.38;4893121;28;49679;-69
2023/07/10 11:27:32;;;;;;;;;0.00;0.00;;;;;-142.59;100.00;56100.38;4893420;28;50105;-69
2023/07/10 11:30:05;;;;;;;;;0.00;0.00;;;;;-142.59;100.00;56100.38;4887240;29;50704;-69
2023/07/10 11:32:35;;;;;;;;;1.00;1.00;;;;;-142.59;100.00;56100.38;4901887;28;49680;-69
2023/07/10 11:35:15;;;;;;;;;2.00;2.00;;;;;-142.59;100.00;56100.38;4892431;28;50281;-68
2023/07/10 11:37:46;;;;;;;;;0.00;0.00;;;;;-142.59;100.00;56100.38;4892994;28;49784;-68
2023/07/10 11:40:27;;;;;;;;;2.75;1.00;;;;;-142.59;100.00;56100.38;4892718;28;50090;-68
2023/07/10 11:42:53;;;;;;;;;0.00;0.00;;;;;-142.59;100.00;56100.38;4892504;29;49783;-69
2023/07/10 11:45:26;;;;;;;;;1.00;0.00;;;;;-142.59;100.00;56100.38;4892932;28;49693;-69
2023/07/10 11:47:52;;;;;;;;;0.25;0.25;;;;;-142.59;100.00;56100.38;4893321;28;50327;-69
2023/07/10 11:50:29;;;;;;;;;0.00;0.00;;;;;-142.59;100.00;56100.38;4892668;28;49817;-69
2023/07/10 11:53:19;;;;;;;;;4.00;1.25;;;;;-142.59;100.00;56100.38;4891850;28;50056;-68
2023/07/10 11:56:02;;;;;;;;;0.00;0.00;;;;;-142.59;100.00;56100.38;4892415;29;49732;-68
2023/07/10 11:58:30;;;;;;;;;0.75;0.00;;;;;-142.59;100.00;56100.38;4892763;28;50090;-69
2023/07/10 12:01:13;;;;;;;;;2.00;1.00;;;;;-142.59;100.00;56100.38;4891978;28;50716;-68
2023/07/10 12:03:40;;;;;;;;;1.00;0.25;;;;;-142.59;100.00;56100.38;4886876;29;49657;-69
2023/07/10 12:06:18;;;;;;;;;1.00;1.00;;;;;-142.59;100.00;56100.38;4892506;28;49872;-69
2023/07/10 12:08:45;;;;;;;;;0.75;0.75;;;;;-142.59;100.00;56100.38;4892975;28;50306;-69
2023/07/10 12:11:33;;;;;;;;;2.00;1.00;;;;;-142.59;100.00;56100.38;4891978;29;50605;-69
2023/07/10 12:14:10;;;;;;;;;0.00;0.00;;;;;-142.59;100.00;56100.38;4892325;29;49836;-69
2023/07/10 12:16:43;;;;;;;;;3.50;3.50;;;;;-142.59;100.00;56100.38;4891132;29;49843;-69
2023/07/10 12:19:14;;;;;;;;;1.00;1.00;;;;;-142.59;100.00;56100.38;4892486;28;49799;-69
2023/07/10 12:21:40;;;;;;;;;0.00;0.00;;;;;-142.59;100.00;56100.38;4892014;28;49753;-69
2023/07/10 12:24:13;;;;;;;;;2.00;2.00;;;;;-142.59;100.00;56100.38;4892180;29;49836;-69
2023/07/10 12:26:39;;;;;;;;;3.75;3.75;;;;;-142.59;100.00;56100.38;4892157;28;50142;-69
2023/07/10 12:29:11;;;;;;;;;1.75;0.50;;;;;-142.59;100.00;56100.38;4892113;29;50066;-68
2023/07/10 12:31:38;;;;;;;;;0.00;0.00;;;;;-142.59;100.00;56100.38;4892049;28;49779;-69
2023/07/10 12:34:05;;;;;;;;;3.00;3.00;;;;;-142.59;100.00;56100.38;4892095;28;50045;-69
2023/07/10 12:36:35;;;;;;;;;1.00;1.00;;;;;-142.59;100.00;56100.38;4892061;28;50118;-69
2023/07/10 12:39:05;;;;;;;;;0.00;0.00;;;;;-142.59;100.00;56100.38;4891998;28;49711;-69
2023/07/10 12:41:38;;;;;;;;;0.00;0.00;;;;;-142.59;100.00;56100.38;4891495;28;51065;-69
2023/07/10 12:44:05;;;;;;;;;1.75;1.75;;;;;-142.59;100.00;56100.38;4891822;28;50167;-69
2023/07/10 12:46:31;;;;;;;;;1.50;1.50;;;;;-142.59;100.00;56100.38;4893651;28;49868;-69
2023/07/10 12:49:01;;;;;;;;;1.25;1.25;;;;;-142.59;100.00;56100.38;4896005;28;50027;-69
2023/07/10 12:51:31;;;;;;;;;0.00;0.00;;;;;-142.59;100.00;56100.38;4895197;28;50185;-69
2023/07/10 12:54:00;;;;;;;;;0.00;0.00;;;;;-142.59;100.00;56100.38;4894936;28;49789;-68
2023/07/10 12:56:28;;;;;;;;;0.00;0.00;;;;;-142.59;100.00;56100.38;4894596;28;49688;-70
2023/07/10 12:58:58;;;;;;;;;1.50;1.50;;;;;-142.59;100.00;56100.38;4894471;28;50160;-70
2023/07/10 13:01:34;;;;;;;;;2.00;1.00;;;;;-142.59;100.00;56100.38;4891841;28;51141;-71
2023/07/10 13:04:24;;;;;;;;;0.00;0.00;;;;;-142.59;100.00;56100.38;4894691;28;49893;-70
2023/07/10 13:07:00;;;;;;;;;1.00;1.00;;;;;-142.59;100.00;56100.38;4894331;28;49810;-71
2023/07/10 13:09:27;;;;;;;;;4.25;4.25;;;;;-142.59;100.00;56100.38;4894796;28;50193;-70
2023/07/10 13:11:52;;;;;;;;;0.75;0.75;;;;;-142.59;100.00;56100.38;4908403;28;49835;-70
2023/07/10 13:14:27;;;;;;;;;1.00;1.00;;;;;-142.59;100.00;56100.38;4894416;29;49727;-70
2023/07/10 13:16:52;;;;;;;;;1.00;1.00;;;;;-142.59;100.00;56100.38;4893535;28;49923;-70
2023/07/10 13:19:18;;;;;;;;;1.00;1.00;;;;;-142.59;100.00;56100.38;4893779;28;50719;-70
2023/07/10 13:21:43;;;;;;;;;1.00;0.00;;;;;-142.59;100.00;56100.38;4894181;28;50495;-70
2023/07/10 13:24:08;;;;;;;;;1.00;0.00;;;;;-142.59;100.00;56100.38;4893635;29;57652;-70
2023/07/10 13:26:34;;;;;;;;;1.00;1.00;;;;;-142.59;100.00;56100.38;4894120;29;49705;-70
2023/07/10 13:28:59;;;;;;;;;4.75;4.75;;;;;-142.59;100.00;56100.38;4895066;28;50086;-70
2023/07/10 13:31:29;;;;;;;;;0.00;0.00;;;;;-142.59;100.00;56100.38;4894410;28;51721;-70
2023/07/10 13:33:54;;;;;;;;;4.00;1.50;;;;;-142.59;100.00;56100.38;4894472;28;49832;-70
2023/07/10 13:36:23;;;;;;;;;0.25;0.25;;;;;-142.59;100.00;56100.38;4894275;29;49813;-70
2023/07/10 13:38:48;;;;;;;;;1.75;0.50;;;;;-142.59;100.00;56100.38;4894321;28;50141;-70
2023/07/10 13:41:25;;;;;;;;;1.00;0.00;;;;;-142.59;100.00;56100.38;4893500;28;59326;-70
2023/07/10 13:43:51;;;;;;;;;0.00;0.00;;;;;-142.59;100.00;56100.38;4891688;29;49898;-70
2023/07/10 13:46:31;;;;;;;;;3.00;2.00;;;;;-142.59;100.00;56100.38;4893851;28;49869;-70
2023/07/10 13:49:04;;;;;;;;;1.50;0.00;;;;;-142.59;100.00;56100.38;4894622;28;49780;-70
2023/07/10 13:51:30;;;;;;;;;0.75;0.00;;;;;-142.59;100.00;56100.38;4884777;29;49919;-69
2023/07/10 13:53:57;;;;;;;;;0.50;0.50;;;;;-142.59;100.00;56100.38;4893375;28;50087;-69
2023/07/10 13:56:26;;;;;;;;;0.00;0.00;;;;;-142.59;100.00;56100.38;4893911;28;49887;-69
2023/07/10 13:58:52;;;;;;;;;0.25;0.25;;;;;-142.59;100.00;56100.38;4893273;28;50192;-69
2023/07/10 14:01:19;;;;;;;;;1.00;0.00;;;;;-142.59;100.00;56100.38;4894079;28;50989;-73
2023/07/10 14:03:48;;;;;;;;;0.75;0.00;;;;;-142.59;100.00;56100.38;4894026;28;49676;-71
2023/07/10 14:06:19;;;;;;;;;1.00;1.00;;;;;-142.59;100.00;56100.38;4894131;28;50062;-71
2023/07/10 14:08:46;;;;;;;;;1.25;1.25;;;;;-142.59;100.00;56100.38;4891299;28;49820;-71
2023/07/10 14:11:12;;;;;;;;;2.00;2.00;;;;;-142.59;100.00;56100.38;4892874;28;50707;-72
2023/07/10 14:13:37;;;;;;;;;1.00;0.75;;;;;-142.59;100.00;56100.38;4893439;28;50057;-72
2023/07/10 14:16:06;;;;;;;;;2.00;2.00;;;;;-142.59;100.00;56100.38;4893696;28;58357;-73
2023/07/10 14:18:31;;;;;;;;;0.75;0.75;;;;;-142.59;100.00;56100.38;4894373;28;49763;-73
2023/07/10 14:20:57;;;;;;;;;1.50;0.75;;;;;-142.59;100.00;56100.38;4893093;28;51008;-73
2023/07/10 14:23:23;;;;;;;;;3.25;3.25;;;;;-142.59;100.00;56100.38;4893524;28;49819;-73
2023/07/10 14:25:49;;;;;;;;;5.75;5.25;;;;;-142.59;100.00;56100.38;4893415;28;50248;-74
2023/07/10 14:28:17;;;;;;;;;2.50;1.00;;;;;-142.59;100.00;56100.38;4893694;28;50077;-74
2023/07/10 14:30:43;;;;;;;;;1.50;1.50;;;;;-142.59;100.00;56100.38;4893675;28;49864;-73
2023/07/10 14:33:09;;;;;;;;;0.00;0.00;;;;;-142.59;100.00;56100.38;4893670;28;49793;-72
2023/07/10 14:35:36;;;;;;;;;2.25;2.25;;;;;-142.59;100.00;56100.38;4893204;28;50186;-72
2023/07/10 14:38:20;;;;;;;;;0.00;0.00;;;;;-142.59;100.00;56100.38;4892960;28;50068;-74
2023/07/10 14:40:46;;;;;;;;;2.00;2.00;;;;;-142.59;100.00;56100.38;4892792;29;50601;-73
2023/07/10 14:43:12;;;;;;;;;2.00;2.00;;;;;-142.59;100.00;56100.38;4893725;28;50205;-73
2023/07/10 14:46:02;;;;;;;;;0.00;0.00;;;;;-142.59;100.00;56100.38;4892443;28;49872;-72
2023/07/10 14:48:27;;;;;;;;;0.00;0.00;;;;;-142.59;100.00;56100.38;4890810;29;49807;-73
2023/07/10 14:50:53;;;;;;;;;3.25;3.00;;;;;-142.59;100.00;56100.38;4892448;28;50393;-73
2023/07/10 14:53:21;;;;;;;;;4.00;4.00;;;;;-142.59;100.00;56100.38;4892550;28;50168;-76
2023/07/10 14:55:50;;;;;;;;;0.00;0.00;;;;;-142.59;100.00;56100.38;4892788;28;50071;-76
2023/07/10 14:58:18;;;;;;;;;0.00;0.00;;;;;-142.59;100.00;56100.38;4892609;28;50021;-77
2023/07/10 15:00:45;;;;;;;;;1.00;1.00;;;;;-142.59;100.00;56100.38;4890468;28;51727;-75
2023/07/10 15:03:12;;;;;;;;;2.00;2.00;;;;;-142.59;100.00;56100.38;4907038;28;49773;-78
2023/07/10 15:05:39;;;;;;;;;0.00;0.00;;;;;-142.59;100.00;56100.38;4892878;28;49832;-77
2023/07/10 15:08:05;;;;;;;;;1.00;1.00;;;;;-142.59;100.00;56100.38;4892236;29;50415;-76
2023/07/10 15:10:30;;;;;;;;;1.00;0.00;;;;;-142.59;100.00;56100.38;4892392;28;50593;-76
2023/07/10 15:13:00;;;;;;;;;1.00;1.00;;;;;-142.59;100.00;56100.38;4889662;28;49922;-74
2023/07/10 15:15:30;;;;;;;;;0.00;0.00;;;;;-142.59;100.00;56100.38;4892946;28;49741;-74
2023/07/10 15:17:56;;;;;;;;;1.00;1.00;;;;;-142.59;100.00;56100.38;4892657;28;50097;-74
2023/07/10 15:20:21;;;;;;;;;0.00;0.00;;;;;-142.59;100.00;56100.38;4891236;28;66242;-75
2023/07/10 15:22:47;;;;;;;;;0.00;0.00;;;;;-142.59;100.00;56100.38;4891096;29;56072;-75
2023/07/10 15:25:24;;;;;;;;;0.00;0.00;;;;;-142.59;100.00;56100.38;4892851;28;49854;-75
2023/07/10 15:27:51;;;;;;;;;2.00;2.00;;;;;-142.59;100.00;56100.38;4893104;28;50051;-75
2023/07/10 15:30:19;;;;;;;;;0.00;0.00;;;;;-142.59;100.00;56100.38;4892473;28;51626;-75
2023/07/10 15:32:45;;;;;;;;;0.25;0.25;;;;;-142.59;100.00;56100.38;4892956;28;49858;-75
2023/07/10 15:35:17;;;;;;;;;0.00;0.00;;;;;-142.59;100.00;56100.38;4892536;28;50206;-75
2023/07/10 15:37:43;;;;;;;;;1.50;1.25;;;;;-142.59;100.00;56100.38;4892701;28;50012;-75
2023/07/10 15:40:23;;;;;;;;;0.75;0.00;;;;;-142.59;100.00;56100.38;4892174;28;51640;-75
2023/07/10 15:42:51;;;;;;;;;1.00;1.00;;;;;-142.59;100.00;56100.38;4892908;28;49764;-75
2023/07/10 15:45:18;;;;;;;;;0.50;0.50;;;;;-142.59;100.00;56100.38;4892561;28;49764;-74
2023/07/10 15:47:49;;;;;;;;;3.50;3.50;;;;;-142.59;100.00;56100.38;4892470;28;50098;-74
2023/07/10 15:50:16;;;;;;;;;0.00;0.00;;;;;-142.59;100.00;56100.38;4890453;29;51114;-76
2023/07/10 15:52:47;;;;;;;;;1.25;0.25;;;;;-142.59;100.00;56100.38;4892247;28;50240;-75
2023/07/10 15:55:19;;;;;;;;;1.00;1.00;;;;;-142.59;100.00;56100.38;4892283;29;50010;-74
2023/07/10 15:57:46;;;;;;;;;1.00;1.00;;;;;-142.59;100.00;56100.38;4892202;28;50158;-74
2023/07/10 16:00:17;;;;;;;;;1.00;1.00;;;;;-142.59;100.00;56100.38;4892199;28;50851;-74
2023/07/10 16:02:43;;;;;;;;;94.75;80.00;;;;;-142.59;100.00;56100.38;4885295;29;50102;-76
2023/07/10 16:05:23;;;;;;;;;104.67;99.67;;;;;-142.59;100.00;56100.38;4886039;29;49771;-77
2023/07/10 16:07:53;;;;;;;;;41.75;41.00;;;;;-142.59;100.00;56100.38;4892423;28;50042;-76
2023/07/10 16:10:21;;;;;;;;;0.00;0.00;;;;;-142.59;100.00;56100.38;4891728;28;50437;-73
2023/07/10 16:12:48;;;;;;;;;0.00;0.00;;;;;-142.59;100.00;56100.38;4891980;28;49788;-73
2023/07/10 16:17:28;;;;;;;;;1.00;1.00;;;;;43.29;20.72;101737.09;5048504;28;49796;-70
2023/07/10 16:19:53;;;;;;;;;1.00;1.00;;;;;46.83;17.40;101731.13;5031273;28;54502;-70
2023/07/10 16:22:18;;;;;;;;;0.00;0.00;;;;;49.19;15.26;101731.44;5039218;28;50029;-69
2023/07/10 16:24:44;;;;;;;;;0.00;0.00;;;;;50.73;13.53;101726.78;5027309;28;51541;-69
2023/07/10 16:27:12;;;;;;;;;0.50;0.00;;;;;52.52;12.41;101727.69;5027587;28;55971;-71
2023/07/10 16:29:37;;;;;;;;;0.00;0.00;;;;;52.77;11.68;101707.31;5027314;28;49766;-71
2023/07/10 16:32:03;;;;;;;;;0.75;0.75;;;;;53.50;10.94;101721.72;5026274;28;49849;-72
2023/07/10 16:34:28;;;;;;;;;0.00;0.00;;;;;53.94;10.99;101725.38;5025429;28;50691;-71
2023/07/10 16:36:53;;;;;;;;;1.00;1.00;;;;;51.41;11.73;101713.63;5025047;28;61185;-70
2023/07/10 16:39:19;;;;;;;;;0.00;0.00;;;;;48.92;13.29;101716.31;5025042;28;54451;-71
2023/07/10 16:41:44;;;;;;;;;0.75;0.75;;;;;46.98;14.07;101709.81;5025070;28;53573;-71
2023/07/10 16:44:11;;;;;;;;;0.25;0.25;;;;;45.92;14.75;101706.56;5025697;28;50045;-70
2023/07/10 16:46:37;;;;;;;;;0.75;0.75;;;;;44.35;15.26;101702.84;5031350;28;49746;-69
2023/07/10 16:49:03;;;;;;;;;1.00;1.00;;;;;43.44;15.32;101677.50;5025006;28;49781;-69
2023/07/10 16:51:30;;;;;;;;;1.00;1.00;;;;;42.85;16.10;101703.81;5027367;28;49966;-68
2023/07/10 16:53:59;;;;;;;;;1.00;1.00;;;;;42.34;15.58;101707.13;5029947;28;49992;-69
2023/07/10 16:56:24;;;;;;;;;0.00;0.00;;;;;41.54;16.42;101703.84;5035193;28;50023;-69
2023/07/10 16:58:51;;;;;;;;;0.00;0.00;;;;;41.31;16.85;101705.16;5031327;28;50058;-70
2023/07/10 17:01:23;;;;;;;;;3.00;1.00;;;;;41.19;16.70;101698.88;5037581;28;50088;-70
2023/07/10 17:03:50;;;;;;;;;1.00;1.00;;;;;40.27;18.23;101674.31;5035374;28;49764;-72
2023/07/10 17:06:17;;;;;;;;;2.00;2.00;;;;;40.07;17.62;101690.88;5035073;28;50149;-73
2023/07/10 17:08:43;;;;;;;;;0.00;0.00;;;;;39.42;18.95;101692.88;5034430;28;49873;-74
2023/07/10 17:11:10;;;;;;;;;1.50;1.50;;;;;39.20;18.62;101681.00;5031448;28;49875;-73
2023/07/10 17:13:36;;;;;;;;;1.25;1.25;;;;;38.66;19.43;101679.09;5028928;28;50238;-73
2023/07/10 17:16:02;;;;;;;;;7.50;7.50;;;;;38.29;19.40;101672.19;5032674;28;49873;-73
2023/07/10 17:18:30;;;;;;;;;1.75;1.75;;;;;38.50;19.56;101684.13;5046707;28;49807;-73
2023/07/10 17:20:58;;;;;;;;;3.50;3.00;;;;;38.06;19.92;101688.59;5044388;28;49627;-69
2023/07/10 17:23:28;;;;;;;;;0.00;0.00;;;;;38.00;19.86;101671.78;5050906;28;50602;-73
2023/07/10 17:25:54;;;;;;;;;0.00;0.00;;;;;37.47;20.69;101683.25;5045711;28;50341;-69
2023/07/10 17:28:28;;;;;;;;;1.25;1.00;;;;;37.46;20.39;101688.84;5045292;28;49963;-71
2023/07/10 17:30:56;;;;;;;;;0.00;0.00;;;;;37.27;20.71;101683.91;5031191;28;50209;-70
2023/07/10 17:33:36;;;;;;;;;13.50;13.50;;;;;37.16;21.08;101678.38;5030770;28;50677;-70
2023/07/10 17:36:03;;;;;;;;;9.50;9.50;;;;;36.76;21.66;101669.53;5030977;28;49892;-70
2023/07/10 17:38:30;;;;;;;;;0.00;0.00;;;;;37.47;21.07;101675.03;5026234;28;49803;-71
2023/07/10 17:40:56;;;;;;;;;3.75;2.75;;;;;37.11;21.53;101675.09;5033300;28;50241;-70
2023/07/10 17:43:21;;;;;;;;;0.00;0.00;;;;;37.39;21.49;101665.66;5038188;28;51412;-70
2023/07/10 17:45:46;;;;;;;;;0.50;0.50;;;;;37.06;21.25;101669.09;5037585;28;49834;-70
2023/07/10 17:48:20;;;;;;;;;0.00;0.00;;;;;37.97;20.87;101669.28;5038345;28;49818;-69
2023/07/10 17:50:46;;;;;;;;;2.25;1.00;;;;;37.18;21.37;101674.53;5033488;28;49882;-70
2023/07/10 17:53:17;;;;;;;;;1.00;1.00;;;;;37.53;21.40;101662.69;5030030;28;50137;-70
2023/07/10 17:55:46;;;;;;;;;1.50;1.00;;;;;36.94;21.89;101660.84;5030600;28;50053;-69
2023/07/10 17:58:17;;;;;;;;;0.50;0.50;;;;;37.00;21.96;101658.63;5033018;28;50183;-69
2023/07/10 18:00:45;;;;;;;;;8.00;8.00;;;;;36.93;21.18;101664.56;5042961;28;50054;-73
2023/07/10 18:03:16;;;;;;;;;2.25;1.00;;;;;36.98;21.91;101656.03;5047643;28;50243;-77
2023/07/10 18:05:42;;;;;;;;;3.00;3.00;;;;;36.54;21.60;101653.88;5052705;28;49923;-80
2023/07/10 18:08:17;;;;;;;;;9.50;9.50;;;;;37.04;21.70;101652.78;5040096;28;49792;-79
2023/07/10 18:10:44;;;;;;;;;4.00;4.00;;;;;36.63;21.78;101658.66;5038745;28;49997;-76
2023/07/10 18:13:17;;;;;;;;;2.00;2.00;;;;;36.88;20.85;101661.31;5043051;28;50776;-71
2023/07/10 18:15:43;;;;;;;;;1.00;1.00;;;;;-142.59;100.00;56100.38;5036920;28;49698;-77
2023/07/10 18:18:09;;;;;;;;;8.75;8.75;;;;;-142.59;100.00;56100.38;5041214;28;49854;-75